Portada
METAR-TAF:

METAR-TAF

Aeroports :

Caxias do Sul, Rio Grande do Sul, Brasil

latitud: 29-11-44S, longitud: 051-11-23W, altitud: 754 m

Observació

L'informe es va fer fa 8 hores i 17 minuts, a les 23:00 UTC
Vent 12 kt del Oest/Nord-Oest
Temperatura 14°C
Humitat 72%
Pressió 1022 hPa
Visibilitat 10 km o més
sense núvols per sota de 1500 mi sense presència de cumulonimbus.

METAR: SBCX 192300Z 30012KT CAVOK 14/09 Q1022

Hora: 04:17 (07:17 UTC)


TAF: manca

Observacions i pronòstics meteorològics de més de 4000 aeroports (METAR i TAF).

Les estacions disponibles són els punts grocs i vermells al mapa.

Posi el ratolí al punt desitjat per veure el nom de l'estació.

Feu clic per veure les observacions i els pronòstics meteorològics.

Per canviar el mapa: feu clic els botons verds amb una creu de color negre per apropar; al botó verd amb un guió per allunyar la imatge; o en les fletxes verdes per a mapes adjacents.


METAR-TAF: